Time;durP1;ratioP1;P1;durP2;ratioP2;P2;SDS_P1;SDS_P2;PMS_P1;PMS_P2;Temp;Humidity;BMP_temperature;BMP_pressure;BME280_temperature;BME280_humidity;BME280_pressure;Samples;Min_cycle;Max_cycle;Signal;HPM_P1;HPM_P2
2023/09/28 00:02:26;;;;;;;10.70;9.60;;;16.80;99.90;;;;;;5018747;28;20041;-95
2023/09/28 00:04:52;;;;;;;9.82;8.50;;;16.80;99.90;;;;;;5018468;28;20041;-93
2023/09/28 00:07:17;;;;;;;8.82;8.02;;;16.70;99.90;;;;;;5020866;28;20037;-95
2023/09/28 00:09:44;;;;;;;11.50;9.05;;;17.20;99.90;;;;;;5018586;28;20736;-94
2023/09/28 00:12:09;;;;;;;10.18;9.07;;;17.80;99.90;;;;;;5016231;28;20048;-96
2023/09/28 00:14:35;;;;;;;12.82;8.93;;;17.00;99.90;;;;;;5015756;28;20060;-96
2023/09/28 00:17:02;;;;;;;11.30;8.90;;;16.70;99.90;;;;;;5016613;28;20056;-95
2023/09/28 00:19:29;;;;;;;12.07;8.93;;;16.80;99.90;;;;;;5020442;28;20048;-95
2023/09/28 00:21:55;;;;;;;13.68;9.48;;;18.10;99.90;;;;;;5012764;28;20037;-95
2023/09/28 00:24:21;;;;;;;10.43;9.30;;;16.80;99.90;;;;;;5031322;28;20040;-94
2023/09/28 00:26:47;;;;;;;10.75;9.32;;;16.80;99.90;;;;;;5036227;28;20044;-96
2023/09/28 00:29:14;;;;;;;9.98;8.98;;;16.80;99.90;;;;;;5018046;28;20052;-90
2023/09/28 00:31:39;;;;;;;9.77;8.75;;;16.80;99.90;;;;;;5003963;28;20041;-93
2023/09/28 00:34:06;;;;;;;10.25;8.93;;;16.90;99.90;;;;;;5070278;28;20052;-93
2023/09/28 00:36:38;;;;;;;11.32;8.98;;;17.00;99.90;;;;;;5050764;28;20041;-96
2023/09/28 00:39:05;;;;;;;10.27;8.68;;;16.90;99.90;;;;;;5051275;28;20037;-95
2023/09/28 00:41:31;;;;;;;9.73;8.73;;;16.90;99.90;;;;;;5057561;28;20097;-95
2023/09/28 00:43:56;;;;;;;9.23;8.23;;;16.90;99.90;;;;;;5053812;28;20040;-95
2023/09/28 00:46:22;;;;;;;11.95;9.27;;;16.90;99.90;;;;;;5054168;28;20612;-94
2023/09/28 00:48:58;;;;;;;9.85;8.55;;;16.90;99.90;;;;;;5053438;28;20044;-92
2023/09/28 00:51:26;;;;;;;9.60;8.20;;;16.90;99.90;;;;;;5054758;28;20040;-91
2023/09/28 00:53:54;;;;;;;11.73;7.78;;;16.90;99.90;;;;;;5062832;28;20981;-96
2023/09/28 00:56:21;;;;;;;9.02;8.10;;;16.90;99.90;;;;;;5056543;28;20048;-93
2023/09/28 00:58:52;;;;;;;10.95;7.82;;;16.90;99.90;;;;;;5070324;28;20051;-93
2023/09/28 01:01:17;;;;;;;9.10;7.78;;;16.90;99.90;;;;;;5056539;28;20044;-95
2023/09/28 01:03:43;;;;;;;8.60;7.65;;;16.80;99.90;;;;;;5055816;28;20040;-89
2023/09/28 01:06:10;;;;;;;8.75;7.30;;;16.90;99.90;;;;;;5073824;28;20039;-96
2023/09/28 01:08:36;;;;;;;9.40;7.55;;;16.90;99.90;;;;;;5070743;28;20044;-94
2023/09/28 01:11:07;;;;;;;9.60;7.68;;;16.90;99.90;;;;;;5058809;28;20051;-96
2023/09/28 01:13:33;;;;;;;11.60;7.65;;;16.20;99.90;;;;;;5083638;28;20044;-96
2023/09/28 01:15:59;;;;;;;11.35;7.57;;;16.80;99.90;;;;;;5060538;28;20128;-95
2023/09/28 01:18:27;;;;;;;8.18;7.15;;;16.90;99.90;;;;;;5061237;28;20080;-96
2023/09/28 01:20:54;;;;;;;9.88;8.02;;;17.60;99.90;;;;;;5079805;28;20036;-96
2023/09/28 01:23:20;;;;;;;8.73;7.25;;;16.80;99.90;;;;;;5078125;28;20038;-93
2023/09/28 01:25:47;;;;;;;9.00;7.32;;;16.90;99.90;;;;;;5074816;28;20096;-96
2023/09/28 01:28:13;;;;;;;8.52;6.85;;;16.80;99.90;;;;;;5084654;28;20048;-95
2023/09/28 01:30:39;;;;;;;11.10;7.53;;;16.80;99.90;;;;;;5054058;23;20069;-96
2023/09/28 01:33:05;;;;;;;8.70;7.80;;;16.70;99.90;;;;;;5102332;23;20066;-94
2023/09/28 01:35:31;;;;;;;9.20;6.68;;;16.70;99.90;;;;;;4963089;28;20051;-94
2023/09/28 01:38:18;;;;;;;7.95;7.13;;;16.80;99.90;;;;;;4992246;28;20046;-93
2023/09/28 01:40:45;;;;;;;10.13;7.55;;;16.70;99.90;;;;;;4964412;28;20096;-94
2023/09/28 01:43:11;;;;;;;9.40;6.13;;;16.70;99.90;;;;;;4986337;28;20053;-96
2023/09/28 01:45:38;;;;;;;8.70;6.60;;;16.80;99.90;;;;;;4995763;28;20038;-92
2023/09/28 01:48:04;;;;;;;7.68;6.28;;;17.80;99.90;;;;;;4972820;28;20066;-94
2023/09/28 01:50:36;;;;;;;7.57;6.22;;;17.10;99.90;;;;;;4978194;28;20054;-94
2023/09/28 01:53:02;;;;;;;7.22;6.38;;;16.80;99.90;;;;;;4964008;28;20046;-92
2023/09/28 01:55:28;;;;;;;9.43;6.57;;;16.60;99.90;;;;;;4984335;28;20058;-94
2023/09/28 01:57:57;;;;;;;8.60;5.97;;;16.70;99.90;;;;;;4961252;28;20787;-93
2023/09/28 02:00:26;;;;;;;12.07;6.65;;;15.40;99.90;;;;;;4969934;28;20038;-90
2023/09/28 02:03:02;;;;;;;7.85;6.43;;;16.50;99.90;;;;;;4975799;28;20042;-91
2023/09/28 02:05:32;;;;;;;8.52;6.32;;;16.50;99.90;;;;;;4956454;28;20105;-91
2023/09/28 02:08:05;;;;;;;7.55;6.30;;;16.50;99.90;;;;;;4976169;28;20079;-88
2023/09/28 02:10:34;;;;;;;7.63;6.40;;;16.60;99.90;;;;;;4974040;28;20082;-90
2023/09/28 02:13:03;;;;;;;7.78;5.75;;;17.00;99.90;;;;;;4969669;28;20057;-92
2023/09/28 02:15:30;;;;;;;11.55;6.63;;;16.60;99.90;;;;;;4994308;28;20068;-92
2023/09/28 02:17:56;;;;;;;8.32;6.05;;;16.40;99.90;;;;;;4970598;28;20064;-92
2023/09/28 02:20:23;;;;;;;8.05;6.78;;;16.30;99.90;;;;;;4973089;28;20149;-91
2023/09/28 02:22:52;;;;;;;11.45;6.97;;;16.20;99.90;;;;;;4975217;28;20129;-93
2023/09/28 02:25:22;;;;;;;11.55;6.72;;;16.20;99.90;;;;;;4971730;28;20085;-91
2023/09/28 02:27:50;;;;;;;8.00;6.20;;;16.20;99.90;;;;;;4984393;28;20118;-92
2023/09/28 02:30:19;;;;;;;10.40;6.75;;;16.10;99.90;;;;;;4962187;28;20050;-93
2023/09/28 02:32:46;;;;;;;8.95;6.80;;;16.10;99.90;;;;;;4975150;28;20062;-96
2023/09/28 02:35:16;;;;;;;9.68;7.03;;;16.00;99.90;;;;;;4965333;28;20485;-93
2023/09/28 02:37:44;;;;;;;8.93;6.53;;;17.30;99.90;;;;;;4972623;28;20121;-89
2023/09/28 02:40:13;;;;;;;7.68;6.75;;;14.10;99.90;;;;;;4957060;28;20043;-91
2023/09/28 02:42:51;;;;;;;10.43;7.38;;;16.10;99.90;;;;;;4967839;28;20045;-89
2023/09/28 02:45:17;;;;;;;9.10;7.43;;;15.80;99.90;;;;;;4969294;28;20149;-91
2023/09/28 02:47:45;;;;;;;7.93;6.70;;;15.70;99.90;;;;;;4969918;28;20186;-91
2023/09/28 02:50:15;;;;;;;9.85;7.30;;;15.80;99.90;;;;;;4970393;28;20069;-93
2023/09/28 02:52:46;;;;;;;11.52;7.10;;;18.40;99.90;;;;;;4972652;28;20057;-91
2023/09/28 02:55:12;;;;;;;10.90;7.80;;;16.40;99.90;;;;;;4983258;28;20159;-89
2023/09/28 02:57:39;;;;;;;12.73;7.43;;;15.50;99.90;;;;;;5001271;28;20048;-92
2023/09/28 03:00:30;;;;;;;9.88;7.75;;;16.20;99.90;;;;;;4976687;28;20042;-92
2023/09/28 03:03:00;;;;;;;12.32;7.72;;;16.30;99.90;;;;;;4977118;28;20034;-91
2023/09/28 03:05:27;;;;;;;9.35;7.65;;;15.60;99.90;;;;;;4973099;28;20049;-91
2023/09/28 03:07:53;;;;;;;10.98;7.43;;;14.90;99.90;;;;;;4973158;28;20522;-92
2023/09/28 03:10:22;;;;;;;9.02;7.38;;;15.40;99.90;;;;;;5001484;28;20041;-89
2023/09/28 03:12:51;;;;;;;12.13;8.32;;;15.50;99.90;;;;;;4981127;28;20142;-90
2023/09/28 03:15:19;;;;;;;8.15;7.07;;;15.20;99.90;;;;;;4980590;28;20191;-93
2023/09/28 03:17:48;;;;;;;8.30;6.95;;;15.30;99.90;;;;;;4959070;28;20046;-92
2023/09/28 03:20:17;;;;;;;10.38;8.18;;;15.40;99.90;;;;;;4971690;28;20500;-92
2023/09/28 03:22:49;;;;;;;12.02;8.82;;;15.20;99.90;;;;;;4984097;28;20133;-88
2023/09/28 03:25:17;;;;;;;9.63;7.75;;;15.20;99.90;;;;;;4969652;28;20049;-91
2023/09/28 03:27:45;;;;;;;9.27;8.32;;;15.20;99.90;;;;;;4974334;28;20038;-95
2023/09/28 03:30:11;;;;;;;11.32;7.90;;;15.20;99.90;;;;;;4982730;28;20042;-91
2023/09/28 03:32:41;;;;;;;10.82;7.57;;;15.20;99.90;;;;;;4971086;28;20117;-94
2023/09/28 03:35:11;;;;;;;9.25;8.30;;;15.20;99.90;;;;;;4957009;28;20047;-92
2023/09/28 03:37:40;;;;;;;10.98;8.82;;;15.10;99.90;;;;;;4967563;28;20783;-92
2023/09/28 03:40:10;;;;;;;12.15;9.23;;;18.20;99.90;;;;;;4957417;28;20034;-93
2023/09/28 03:42:40;;;;;;;11.00;8.68;;;17.40;99.90;;;;;;4972616;28;20043;-91
2023/09/28 03:45:10;;;;;;;11.55;9.20;;;15.10;99.90;;;;;;4956198;28;20073;-93
2023/09/28 03:47:40;;;;;;;10.52;8.35;;;15.10;99.90;;;;;;4960346;28;20049;-90
2023/09/28 03:50:09;;;;;;;11.27;9.63;;;15.00;99.90;;;;;;4955990;28;20048;-90
2023/09/28 03:52:35;;;;;;;11.80;9.25;;;15.00;99.90;;;;;;4973938;28;20047;-94
2023/09/28 03:55:03;;;;;;;10.05;8.68;;;15.00;99.90;;;;;;4960358;28;20042;-94
2023/09/28 03:57:31;;;;;;;11.77;9.13;;;14.70;99.90;;;;;;4975103;28;20043;-92
2023/09/28 03:59:57;;;;;;;10.00;8.98;;;14.90;99.90;;;;;;4955873;28;20290;-94
2023/09/28 04:02:32;;;;;;;10.68;8.70;;;14.90;99.90;;;;;;4967339;28;20386;-89
2023/09/28 04:04:58;;;;;;;11.18;9.18;;;15.00;99.90;;;;;;4970914;28;20100;-91
2023/09/28 04:07:24;;;;;;;10.40;8.68;;;14.80;99.90;;;;;;4974574;28;20801;-93
2023/09/28 04:09:50;;;;;;;13.23;9.73;;;14.80;99.90;;;;;;4971958;28;20380;-92
2023/09/28 04:12:16;;;;;;;11.43;8.32;;;14.70;99.90;;;;;;4955693;28;20049;-94
2023/09/28 04:14:42;;;;;;;10.75;9.10;;;14.90;99.90;;;;;;4976945;28;20050;-91
2023/09/28 04:17:08;;;;;;;10.25;8.90;;;14.60;99.90;;;;;;4983968;28;20065;-91
2023/09/28 04:19:34;;;;;;;10.18;8.63;;;14.80;99.90;;;;;;4976198;28;20103;-93
2023/09/28 04:22:00;;;;;;;12.80;9.75;;;14.70;99.90;;;;;;4949544;28;20109;-92
2023/09/28 04:24:26;;;;;;;11.48;9.15;;;14.60;99.90;;;;;;4956061;28;20037;-91
2023/09/28 04:26:51;;;;;;;11.93;8.30;;;14.50;99.90;;;;;;4972334;28;20408;-92
2023/09/28 04:29:17;;;;;;;12.70;9.75;;;14.50;99.90;;;;;;4972203;28;20137;-94
2023/09/28 04:31:43;;;;;;;12.25;9.75;;;14.50;99.90;;;;;;4992592;28;20089;-93
2023/09/28 04:34:12;;;;;;;12.25;9.50;;;14.50;99.90;;;;;;4982214;28;20054;-92
2023/09/28 04:36:38;;;;;;;11.75;8.70;;;13.40;99.90;;;;;;4993822;28;20402;-92
2023/09/28 04:39:05;;;;;;;11.38;9.40;;;15.00;99.90;;;;;;4996766;28;20050;-93
2023/09/28 04:41:31;;;;;;;14.40;9.52;;;14.50;99.90;;;;;;4991901;28;20042;-93
2023/09/28 04:43:58;;;;;;;11.15;9.23;;;14.50;99.90;;;;;;4995435;28;20056;-89
2023/09/28 04:46:26;;;;;;;11.88;9.73;;;14.40;99.90;;;;;;4986889;28;20037;-91
2023/09/28 04:48:53;;;;;;;12.25;9.35;;;14.50;99.90;;;;;;4997866;28;20049;-92
2023/09/28 04:51:19;;;;;;;12.60;9.73;;;14.40;99.90;;;;;;4995335;28;20045;-95
2023/09/28 04:53:48;;;;;;;11.50;10.02;;;14.40;99.90;;;;;;4989739;28;20251;-93
2023/09/28 04:56:22;;;;;;;13.75;10.90;;;14.50;99.90;;;;;;4991175;28;20120;-92
2023/09/28 04:58:48;;;;;;;9.93;8.77;;;14.90;99.90;;;;;;4996028;28;20038;-91
2023/09/28 05:01:15;;;;;;;13.00;9.35;;;14.30;99.90;;;;;;4990409;28;20038;-94
2023/09/28 05:03:40;;;;;;;12.02;9.60;;;12.80;99.90;;;;;;5001488;28;20037;-93
2023/09/28 05:06:06;;;;;;;14.07;9.85;;;14.20;99.90;;;;;;4999603;28;20110;-94
2023/09/28 05:08:32;;;;;;;12.82;10.25;;;14.30;99.90;;;;;;4998892;28;20121;-93
2023/09/28 05:10:58;;;;;;;12.95;10.35;;;14.30;99.90;;;;;;5006605;28;20057;-96
2023/09/28 05:13:28;;;;;;;11.88;10.65;;;14.30;99.90;;;;;;5002094;28;20074;-89
2023/09/28 05:15:54;;;;;;;13.82;10.90;;;14.20;99.90;;;;;;4996987;28;20081;-90
2023/09/28 05:18:20;;;;;;;14.32;11.05;;;14.70;99.90;;;;;;4993569;28;20042;-89
2023/09/28 05:20:45;;;;;;;11.68;9.68;;;14.60;99.90;;;;;;4993741;28;20038;-91
2023/09/28 05:23:11;;;;;;;11.77;10.00;;;14.20;99.90;;;;;;4983155;28;20042;-94
2023/09/28 05:25:37;;;;;;;13.88;10.70;;;14.20;99.90;;;;;;4997086;28;20321;-90
2023/09/28 05:28:04;;;;;;;14.45;10.70;;;15.10;99.90;;;;;;5013053;28;20042;-91
2023/09/28 05:30:30;;;;;;;13.60;10.35;;;14.30;99.90;;;;;;4993329;28;20045;-91
2023/09/28 05:32:59;;;;;;;13.82;11.32;;;14.40;99.90;;;;;;4997071;28;20075;-90
2023/09/28 05:35:25;;;;;;;13.27;11.85;;;14.30;99.90;;;;;;4994650;28;20045;-91
2023/09/28 05:37:51;;;;;;;15.43;11.43;;;14.10;99.90;;;;;;4994340;28;20402;-92
2023/09/28 05:40:17;;;;;;;12.85;10.98;;;14.10;99.90;;;;;;4992177;28;20101;-93
2023/09/28 05:42:42;;;;;;;14.15;11.27;;;14.20;99.90;;;;;;5003307;28;20065;-89
2023/09/28 05:45:12;;;;;;;14.40;12.05;;;14.40;99.90;;;;;;5008721;28;20095;-87
2023/09/28 05:47:38;;;;;;;14.73;13.15;;;14.10;99.90;;;;;;4999764;28;20799;-89
2023/09/28 05:50:04;;;;;;;15.15;11.73;;;14.10;99.90;;;;;;4999920;28;20132;-90
2023/09/28 05:52:31;;;;;;;19.92;12.65;;;14.20;99.90;;;;;;4995032;28;20060;-91
2023/09/28 05:54:57;;;;;;;16.73;11.63;;;14.30;99.90;;;;;;4992357;28;20050;-93
2023/09/28 05:57:23;;;;;;;18.92;11.68;;;14.20;99.90;;;;;;5002187;28;20042;-88
2023/09/28 05:59:51;;;;;;;15.35;12.88;;;14.20;99.90;;;;;;5000129;28;20050;-91
2023/09/28 06:02:19;;;;;;;12.75;11.43;;;14.30;99.90;;;;;;5016091;28;20048;-93
2023/09/28 06:04:45;;;;;;;18.52;12.50;;;14.30;99.90;;;;;;4999151;28;20041;-89
2023/09/28 06:07:11;;;;;;;14.50;11.77;;;14.40;99.90;;;;;;4994946;28;20132;-92
2023/09/28 06:09:40;;;;;;;15.38;12.48;;;14.40;99.90;;;;;;4997632;28;20088;-90
2023/09/28 06:12:06;;;;;;;15.90;10.95;;;14.40;99.90;;;;;;4998479;28;20045;-92
2023/09/28 06:14:33;;;;;;;18.27;12.13;;;14.40;99.90;;;;;;5014526;28;20108;-92
2023/09/28 06:17:00;;;;;;;14.52;11.00;;;15.10;99.90;;;;;;4996493;28;20056;-91
2023/09/28 06:19:27;;;;;;;17.15;11.50;;;14.60;99.90;;;;;;4997895;28;20041;-91
2023/09/28 06:21:59;;;;;;;17.73;10.52;;;15.50;99.90;;;;;;4997376;28;20049;-90
2023/09/28 06:24:25;;;;;;;12.80;11.07;;;16.80;99.90;;;;;;4997033;28;20045;-90
2023/09/28 06:26:53;;;;;;;13.07;10.80;;;14.90;99.90;;;;;;5014211;28;20052;-93
2023/09/28 06:29:19;;;;;;;14.60;10.30;;;14.70;99.90;;;;;;4999690;28;20045;-91
2023/09/28 06:31:44;;;;;;;15.05;10.52;;;14.80;99.90;;;;;;5015793;28;20041;-91
2023/09/28 06:34:10;;;;;;;14.15;9.40;;;14.90;99.90;;;;;;4998672;28;20848;-90
2023/09/28 06:36:37;;;;;;;14.60;8.60;;;15.50;99.90;;;;;;4995945;28;20046;-91
2023/09/28 06:39:04;;;;;;;13.02;8.20;;;15.10;99.90;;;;;;4995760;28;20107;-93
2023/09/28 06:41:30;;;;;;;14.27;8.18;;;15.10;99.90;;;;;;4990487;28;20045;-91
2023/09/28 06:43:56;;;;;;;11.13;6.78;;;15.30;99.90;;;;;;4989609;28;20053;-89
2023/09/28 06:46:23;;;;;;;15.70;6.43;;;15.40;99.90;;;;;;4992140;28;20084;-90
2023/09/28 06:48:51;;;;;;;15.18;5.82;;;15.80;99.90;;;;;;4998493;28;20053;-91
2023/09/28 06:51:21;;;;;;;14.70;5.28;;;15.70;99.90;;;;;;4995977;28;20045;-91
2023/09/28 06:53:50;;;;;;;14.60;5.22;;;15.90;99.90;;;;;;4999081;28;20219;-90
2023/09/28 06:56:16;;;;;;;12.77;5.30;;;15.70;99.90;;;;;;4999531;28;20048;-91
2023/09/28 06:58:42;;;;;;;12.80;5.00;;;15.90;99.90;;;;;;4993209;28;20046;-91
2023/09/28 07:01:08;;;;;;;18.63;5.28;;;16.60;99.90;;;;;;4990365;28;20101;-90
2023/09/28 07:03:33;;;;;;;18.38;5.30;;;16.10;99.90;;;;;;4989691;28;20037;-91
2023/09/28 07:06:00;;;;;;;13.82;4.28;;;16.30;99.90;;;;;;4994474;28;20077;-90
2023/09/28 07:08:27;;;;;;;15.90;4.07;;;16.80;99.90;;;;;;5013339;28;20399;-91
2023/09/28 07:10:55;;;;;;;15.02;4.45;;;16.60;99.90;;;;;;4996416;28;20572;-90
2023/09/28 07:13:21;;;;;;;22.75;4.90;;;17.00;99.90;;;;;;4994546;28;20562;-90
2023/09/28 07:15:47;;;;;;;12.88;3.25;;;16.70;99.90;;;;;;4992126;28;20054;-91
2023/09/28 07:18:13;;;;;;;20.30;5.63;;;16.80;99.90;;;;;;4992259;28;20063;-93
2023/09/28 07:20:39;;;;;;;14.18;3.65;;;16.80;99.90;;;;;;4997510;28;20415;-91
2023/09/28 07:23:05;;;;;;;17.92;3.80;;;16.90;99.90;;;;;;4999969;28;20037;-90
2023/09/28 07:25:31;;;;;;;17.00;3.95;;;17.20;99.90;;;;;;4996625;28;20100;-90
2023/09/28 07:27:59;;;;;;;12.77;3.15;;;17.40;99.90;;;;;;4998584;28;20041;-90
2023/09/28 07:30:25;;;;;;;18.58;3.38;;;17.20;99.90;;;;;;4994013;28;20077;-89
2023/09/28 07:32:51;;;;;;;22.63;5.22;;;17.30;99.90;;;;;;4990551;28;20057;-93
2023/09/28 07:35:20;;;;;;;16.00;4.38;;;17.10;99.90;;;;;;4994586;28;20045;-91
2023/09/28 07:37:47;;;;;;;19.15;4.63;;;17.10;99.90;;;;;;4991193;28;20222;-91
2023/09/28 07:40:15;;;;;;;14.30;3.25;;;17.20;99.90;;;;;;4998882;28;20061;-89
2023/09/28 07:42:43;;;;;;;19.33;3.33;;;17.40;99.90;;;;;;5005147;28;20127;-93
2023/09/28 07:45:11;;;;;;;22.10;3.75;;;17.40;99.90;;;;;;4999295;28;20049;-91
2023/09/28 07:47:40;;;;;;;20.95;3.60;;;17.60;99.90;;;;;;4995033;28;20041;-90
2023/09/28 07:50:06;;;;;;;18.70;3.20;;;14.70;99.90;;;;;;4981257;28;20120;-93
2023/09/28 07:52:40;;;;;;;20.38;4.20;;;17.40;99.90;;;;;;4990775;28;20041;-93
2023/09/28 07:55:09;;;;;;;12.65;3.03;;;17.40;99.90;;;;;;4991587;28;20072;-91
2023/09/28 07:57:47;;;;;;;16.13;3.30;;;18.00;99.90;;;;;;4993753;28;20483;-93
2023/09/28 08:00:14;;;;;;;25.48;4.90;;;17.50;99.90;;;;;;4986709;28;20156;-92
2023/09/28 08:02:42;;;;;;;19.30;3.45;;;17.60;99.90;;;;;;4993449;28;20516;-90
2023/09/28 08:05:12;;;;;;;17.15;2.85;;;17.70;99.90;;;;;;4991886;28;20038;-90
2023/09/28 08:07:41;;;;;;;20.73;2.97;;;17.90;99.90;;;;;;4986531;28;20061;-93
2023/09/28 08:10:13;;;;;;;15.23;2.85;;;18.10;99.90;;;;;;4990923;28;20049;-91
2023/09/28 08:12:43;;;;;;;19.38;3.38;;;18.70;99.90;;;;;;4979023;28;20058;-91
2023/09/28 08:15:12;;;;;;;31.63;5.22;;;16.20;99.90;;;;;;4998055;28;20088;-91
2023/09/28 08:17:45;;;;;;;19.05;3.28;;;18.70;99.90;;;;;;4997092;28;20041;-92
2023/09/28 08:20:15;;;;;;;21.90;3.30;;;19.10;99.90;;;;;;4995354;28;20560;-91
2023/09/28 08:22:41;;;;;;;20.13;3.40;;;18.50;99.90;;;;;;4990706;28;20125;-93
2023/09/28 08:25:10;;;;;;;15.45;3.40;;;18.60;99.90;;;;;;4998300;28;20041;-91
2023/09/28 08:27:36;;;;;;;22.40;5.30;;;18.50;99.90;;;;;;4994885;28;20499;-92
2023/09/28 08:30:03;;;;;;;19.38;3.30;;;19.10;99.90;;;;;;4992040;28;20082;-91
2023/09/28 08:32:31;;;;;;;21.88;3.35;;;18.90;99.90;;;;;;5010556;28;20687;-91
2023/09/28 08:34:57;;;;;;;19.63;2.75;;;19.10;99.90;;;;;;4997375;28;20115;-93
2023/09/28 08:37:24;;;;;;;24.10;4.22;;;19.90;99.90;;;;;;4998254;28;20048;-93
2023/09/28 08:39:54;;;;;;;28.15;4.20;;;20.40;99.90;;;;;;4995151;28;20399;-90
2023/09/28 08:42:25;;;;;;;21.35;3.45;;;20.00;99.90;;;;;;4987500;28;20085;-90
2023/09/28 08:45:00;;;;;;;20.07;3.50;;;20.70;99.90;;;;;;4987250;28;20076;-88
2023/09/28 08:47:37;;;;;;;19.83;3.95;;;21.10;99.90;;;;;;4994111;28;20075;-90
2023/09/28 08:50:05;;;;;;;18.10;2.97;;;21.30;99.90;;;;;;5005834;28;20494;-89
2023/09/28 08:52:31;;;;;;;17.50;2.50;;;21.80;99.90;;;;;;4992906;28;20041;-90
2023/09/28 08:54:58;;;;;;;14.07;3.70;;;21.60;99.90;;;;;;4987227;28;20057;-90
2023/09/28 08:57:28;;;;;;;19.38;2.75;;;21.90;99.90;;;;;;4985379;28;20045;-91
2023/09/28 09:00:11;;;;;;;21.05;3.95;;;22.00;99.90;;;;;;4986827;28;20044;-92
2023/09/28 09:02:43;;;;;;;24.33;3.97;;;23.50;99.90;;;;;;5001312;28;20114;-96
2023/09/28 09:05:12;;;;;;;18.75;2.58;;;21.70;99.90;;;;;;5005617;28;20057;-95
2023/09/28 09:07:40;;;;;;;18.35;3.63;;;22.10;99.90;;;;;;4994579;28;20045;-94
2023/09/28 09:10:11;;;;;;;17.23;3.75;;;21.30;99.90;;;;;;5006740;28;20045;-93
2023/09/28 09:12:40;;;;;;;20.20;3.55;;;21.70;99.90;;;;;;5013629;28;20041;-91
2023/09/28 09:15:07;;;;;;;14.43;2.92;;;21.10;99.90;;;;;;5015081;28;20029;-94
2023/09/28 09:17:38;;;;;;;19.88;2.85;;;20.80;99.90;;;;;;5007299;28;20053;-95
2023/09/28 09:20:08;;;;;;;18.98;4.22;;;20.60;99.90;;;;;;5007972;28;20229;-92
2023/09/28 09:22:35;;;;;;;17.02;3.35;;;20.60;99.90;;;;;;4995858;28;20049;-93
2023/09/28 09:25:05;;;;;;;23.05;4.25;;;18.10;99.90;;;;;;4992492;28;20608;-93
2023/09/28 09:27:34;;;;;;;22.17;3.63;;;20.60;99.90;;;;;;4998537;28;20066;-92
2023/09/28 09:30:08;;;;;;;21.42;3.33;;;22.30;99.90;;;;;;4999630;28;20173;-93
2023/09/28 09:32:42;;;;;;;19.52;3.83;;;20.60;99.90;;;;;;5008610;28;20096;-92
2023/09/28 09:35:10;;;;;;;14.15;3.25;;;20.30;99.90;;;;;;5025294;28;20068;-93
2023/09/28 09:37:41;;;;;;;16.15;2.85;;;20.10;99.90;;;;;;5016017;28;20033;-92
2023/09/28 09:40:12;;;;;;;20.70;4.35;;;20.00;99.90;;;;;;5013147;28;20518;-95
2023/09/28 09:42:38;;;;;;;14.73;3.58;;;20.00;99.90;;;;;;5028928;28;20407;-94
2023/09/28 09:45:12;;;;;;;22.88;3.33;;;20.00;99.90;;;;;;5033349;28;20775;-93
2023/09/28 09:47:47;;;;;;;19.90;3.47;;;20.00;99.90;;;;;;5029060;28;20067;-93
2023/09/28 09:50:17;;;;;;;21.83;3.35;;;20.60;99.90;;;;;;5023184;28;20133;-95
2023/09/28 09:52:46;;;;;;;18.27;3.88;;;19.90;99.90;;;;;;5023837;28;20038;-89
2023/09/28 09:55:12;;;;;;;20.52;3.45;;;20.00;99.90;;;;;;5009088;28;20041;-92
2023/09/28 09:57:42;;;;;;;23.50;4.10;;;20.00;99.90;;;;;;5017069;28;20059;-91
2023/09/28 10:00:20;;;;;;;20.73;4.18;;;20.20;99.90;;;;;;5010265;28;20037;-94
2023/09/28 10:02:54;;;;;;;17.38;4.32;;;20.80;99.90;;;;;;5026866;28;20045;-94
2023/09/28 10:05:22;;;;;;;24.40;4.60;;;20.60;99.90;;;;;;5013449;28;20475;-93
2023/09/28 10:07:51;;;;;;;16.92;2.22;;;20.80;99.90;;;;;;5008082;28;20086;-95
2023/09/28 10:10:20;;;;;;;20.60;3.55;;;20.90;99.90;;;;;;5019223;28;20041;-95
2023/09/28 10:12:48;;;;;;;18.48;3.67;;;20.80;99.90;;;;;;5015014;28;20033;-94
2023/09/28 10:15:16;;;;;;;14.57;2.53;;;20.90;99.90;;;;;;5010350;28;20069;-93
2023/09/28 10:17:45;;;;;;;22.05;3.90;;;21.20;99.90;;;;;;5007337;28;20049;-90
2023/09/28 10:20:19;;;;;;;18.92;3.72;;;21.60;99.90;;;;;;5025089;28;20037;-90
2023/09/28 10:22:48;;;;;;;15.50;2.80;;;21.60;99.90;;;;;;5008872;28;20045;-91
2023/09/28 10:25:18;;;;;;;18.58;3.10;;;22.00;99.90;;;;;;5009142;28;20068;-90
2023/09/28 10:27:45;;;;;;;14.52;2.65;;;21.10;99.90;;;;;;5017173;28;20160;-91
2023/09/28 10:30:19;;;;;;;18.30;3.28;;;21.50;99.90;;;;;;5002926;28;20045;-91
2023/09/28 10:32:45;;;;;;;22.75;2.80;;;20.50;99.90;;;;;;5019055;28;20509;-91
2023/09/28 10:35:26;;;;;;;20.00;3.70;;;21.40;99.90;;;;;;5005437;28;20045;-91
2023/09/28 10:38:17;;;;;;;18.17;2.88;;;21.10;99.90;;;;;;5006273;28;20598;-92
2023/09/28 10:40:47;;;;;;;19.90;3.67;;;21.20;99.90;;;;;;5013605;28;20689;-93
2023/09/28 10:43:29;;;;;;;16.63;2.60;;;21.20;99.90;;;;;;5014913;28;20071;-93
2023/09/28 10:46:13;;;;;;;17.80;2.70;;;21.10;99.90;;;;;;5013350;28;20041;-89
2023/09/28 10:48:44;;;;;;;15.02;2.75;;;21.30;99.90;;;;;;5044500;28;20077;-92
2023/09/28 10:51:18;;;;;;;19.23;3.70;;;21.50;99.90;;;;;;5030119;28;20045;-89
2023/09/28 10:53:45;;;;;;;16.73;2.70;;;21.20;99.90;;;;;;5012331;28;20052;-93
2023/09/28 10:56:14;;;;;;;19.00;2.83;;;21.20;99.90;;;;;;5002774;28;20053;-91
2023/09/28 10:58:41;;;;;;;22.45;3.25;;;20.90;99.90;;;;;;5017366;28;20045;-91
2023/09/28 11:01:07;;;;;;;18.48;3.30;;;20.90;99.90;;;;;;5003595;28;20040;-94
2023/09/28 11:03:35;;;;;;;20.15;3.70;;;23.30;99.90;;;;;;5004746;28;21301;-91
2023/09/28 11:06:04;;;;;;;15.48;2.67;;;20.70;99.90;;;;;;5006632;28;20434;-90
2023/09/28 11:08:34;;;;;;;21.33;3.83;;;20.80;99.90;;;;;;5034201;28;20060;-91
2023/09/28 11:11:03;;;;;;;19.45;2.83;;;20.90;99.90;;;;;;5044492;28;20037;-92
2023/09/28 11:13:32;;;;;;;13.85;2.20;;;21.20;99.90;;;;;;5005820;28;20145;-93
2023/09/28 11:16:05;;;;;;;15.30;2.50;;;21.20;99.90;;;;;;5020629;28;20392;-91
2023/09/28 11:18:33;;;;;;;18.15;2.58;;;21.50;99.90;;;;;;5029756;28;20045;-92
2023/09/28 11:21:03;;;;;;;16.60;3.35;;;21.30;99.90;;;;;;5009609;28;20037;-88
2023/09/28 11:23:40;;;;;;;18.88;2.53;;;21.40;99.90;;;;;;5005045;28;20064;-93
2023/09/28 11:26:09;;;;;;;19.92;2.60;;;21.60;99.90;;;;;;5024136;28;20052;-92
2023/09/28 11:28:46;;;;;;;19.33;4.00;;;21.70;99.90;;;;;;5009399;28;20115;-95
2023/09/28 11:31:15;;;;;;;15.15;2.88;;;20.60;99.90;;;;;;5003108;28;20053;-88
2023/09/28 11:33:44;;;;;;;17.05;2.90;;;21.90;99.90;;;;;;4995709;28;20517;-87
2023/09/28 11:36:21;;;;;;;14.15;2.15;;;22.00;99.90;;;;;;5027873;28;20046;-89
2023/09/28 11:38:48;;;;;;;15.10;2.30;;;22.30;99.90;;;;;;4996072;28;20801;-87
2023/09/28 11:41:14;;;;;;;18.80;3.50;;;21.70;99.90;;;;;;5001154;28;20807;-89
2023/09/28 11:43:48;;;;;;;23.15;3.35;;;21.50;99.90;;;;;;5032113;28;20095;-88
2023/09/28 11:46:25;;;;;;;16.75;2.40;;;21.60;99.90;;;;;;5017412;28;20434;-87
2023/09/28 11:49:28;;;;;;;17.80;2.55;;;22.70;99.90;;;;;;5018225;28;20057;-88
2023/09/28 11:51:55;;;;;;;20.85;3.88;;;19.00;99.90;;;;;;5017066;28;20041;-88
2023/09/28 11:54:22;;;;;;;17.05;2.90;;;21.10;99.90;;;;;;4995348;28;20053;-89
2023/09/28 11:56:49;;;;;;;18.60;2.33;;;21.20;99.90;;;;;;4974163;28;21091;-90
2023/09/28 11:59:16;;;;;;;12.98;2.35;;;20.90;99.90;;;;;;4993209;28;20990;-90
2023/09/28 12:01:51;;;;;;;12.65;1.73;;;20.80;99.90;;;;;;5005239;28;20044;-88
2023/09/28 12:04:20;;;;;;;16.42;1.92;;;21.30;99.90;;;;;;5012983;28;20037;-86
2023/09/28 12:06:49;;;;;;;15.68;2.75;;;20.80;99.90;;;;;;4996026;28;22487;-89
2023/09/28 12:09:19;;;;;;;13.70;2.20;;;23.00;99.90;;;;;;4988857;28;20048;-88
2023/09/28 12:11:45;;;;;;;15.68;2.50;;;21.70;99.90;;;;;;5011158;28;20045;-88
2023/09/28 12:14:14;;;;;;;20.42;2.67;;;20.80;99.90;;;;;;4991802;28;20970;-85
2023/09/28 12:16:42;;;;;;;15.85;3.00;;;20.90;99.90;;;;;;5017575;28;20709;-88
2023/09/28 12:19:08;;;;;;;14.32;2.80;;;20.80;99.90;;;;;;5010707;28;20048;-86
2023/09/28 12:21:34;;;;;;;18.75;2.67;;;20.30;99.90;;;;;;5012723;28;20037;-89
2023/09/28 12:24:00;;;;;;;17.20;2.80;;;20.30;99.90;;;;;;4991568;28;20040;-87
2023/09/28 12:26:26;;;;;;;13.70;2.75;;;20.90;99.90;;;;;;4993015;28;20069;-89
2023/09/28 12:28:55;;;;;;;14.02;2.25;;;21.00;99.90;;;;;;5014959;28;20052;-88
2023/09/28 12:31:24;;;;;;;15.40;3.33;;;21.70;99.90;;;;;;5000441;28;20044;-87
2023/09/28 12:33:49;;;;;;;16.75;2.90;;;21.00;99.90;;;;;;5021597;28;20775;-87
2023/09/28 12:36:34;;;;;;;16.75;2.67;;;21.10;99.90;;;;;;4996157;28;20049;-86
2023/09/28 12:39:00;;;;;;;15.52;2.00;;;21.20;99.90;;;;;;5018674;28;20060;-87
2023/09/28 12:41:26;;;;;;;17.63;3.08;;;19.60;99.90;;;;;;5003213;28;20034;-87
2023/09/28 12:43:52;;;;;;;14.07;2.53;;;21.40;99.90;;;;;;4996305;28;20077;-89
2023/09/28 12:46:18;;;;;;;15.13;2.78;;;21.30;99.90;;;;;;4997706;28;20120;-88